CheckWX is a tool to help pilots better visualize weather data.  It is not intended as a substitute for an official pre-flight weather briefing.

13:54:24 UTC

CYBU METAR
Nipawin Airport
Nipawin, Canada
Current

33 mins ago

CYBU 201321Z AUTO 03007KT 9SM OVC009 15/14 A2996 RMK SLP152 DENSITY ALT 1400FT
Observed
Jul-20 @ 13:21 UTC
Wind
  • 030° at 7 KTS
Visibility
9 SM
Flight Rules
IFR
Cloud Levels
  • Overcast at 900' AGL
Temperature
15°C / 59°F
Dewpoint
14°C / 57°F
Humidity
94%
Altimeter
29.96" Hg
Pressure
1014.52 hPa
Previous

54 mins ago

CYBU 201300Z AUTO 02006KT 9SM OVC007 15/14 A2995 RMK SLP150 DENSITY ALT 1400FT
Observed
Jul-20 @ 13:00 UTC
Wind
  • 020° at 6 KTS
Visibility
9 SM
Flight Rules
IFR
Cloud Levels
  • Overcast at 700' AGL
Temperature
15°C / 59°F
Dewpoint
14°C / 57°F
Humidity
94%
Altimeter
29.95" Hg
Pressure
1014.22 hPa
Previous

2 hours ago

CYBU 201200Z AUTO 01004KT 9SM OVC007 14/14 A2993 RMK SLP142 DENSITY ALT 1400FT
Observed
Jul-20 @ 12:00 UTC
Wind
  • 010° at 4 KTS
Visibility
9 SM
Flight Rules
IFR
Cloud Levels
  • Overcast at 700' AGL
Temperature
14°C / 57°F
Dewpoint
14°C / 57°F
Humidity
100%
Altimeter
29.93" Hg
Pressure
1013.52 hPa